createdAt,value
2023-01-29T00:01:07.755Z,15.15
2023-01-29T00:03:09.337Z,20.33
2023-01-29T00:05:26.559Z,30.33
2023-01-29T00:07:28.788Z,15.52
2023-01-29T00:09:31.502Z,14.90
2023-01-29T00:11:33.188Z,26.63
2023-01-29T00:13:35.049Z,22.35
2023-01-29T00:15:36.582Z,22.50
2023-01-29T00:17:38.068Z,15.65
2023-01-29T00:19:39.538Z,13.32
2023-01-29T00:21:41.060Z,22.30
2023-01-29T00:23:43.175Z,16.00
2023-01-29T00:25:45.061Z,16.52
2023-01-29T00:27:46.586Z,18.75
2023-01-29T00:30:08.080Z,14.77
2023-01-29T00:32:09.808Z,19.95
2023-01-29T00:34:11.439Z,12.55
2023-01-29T00:36:14.581Z,42.85
2023-01-29T00:38:16.140Z,17.48
2023-01-29T00:40:17.969Z,16.27
2023-01-29T00:42:38.142Z,16.83
2023-01-29T00:44:57.752Z,11.90
2023-01-29T00:49:01.004Z,18.90
2023-01-29T00:51:03.486Z,18.23
2023-01-29T00:53:05.026Z,18.08
2023-01-29T00:55:07.432Z,20.08
2023-01-29T00:57:08.907Z,18.27
2023-01-29T00:59:10.441Z,20.30
2023-01-29T01:01:11.990Z,17.00
2023-01-29T01:03:13.611Z,15.50
2023-01-29T01:05:20.267Z,21.35
2023-01-29T01:07:22.025Z,16.23
2023-01-29T01:09:42.096Z,18.92
2023-01-29T01:11:43.685Z,19.52
2023-01-29T01:13:45.280Z,20.67
2023-01-29T01:15:46.766Z,17.98
2023-01-29T01:17:48.987Z,24.67
2023-01-29T01:19:50.671Z,21.67
2023-01-29T01:21:52.179Z,24.13
2023-01-29T01:23:53.894Z,24.08
2023-01-29T01:25:55.481Z,33.67
2023-01-29T01:30:00.632Z,25.83
2023-01-29T01:32:02.257Z,22.48
2023-01-29T01:34:04.241Z,21.38
2023-01-29T01:36:09.774Z,37.72
2023-01-29T01:38:11.475Z,16.90
2023-01-29T01:40:19.144Z,24.67
2023-01-29T01:42:20.829Z,14.68
2023-01-29T01:44:53.567Z,21.40
2023-01-29T01:46:55.655Z,18.20
2023-01-29T01:49:11.668Z,10.88
2023-01-29T01:51:13.958Z,14.43
2023-01-29T01:53:20.915Z,14.80
2023-01-29T01:55:26.545Z,14.63
2023-01-29T01:57:30.161Z,13.82
2023-01-29T01:59:33.675Z,15.23
2023-01-29T02:01:35.456Z,15.23
2023-01-29T02:04:04.807Z,14.70
2023-01-29T02:06:25.047Z,14.90
2023-01-29T02:09:01.689Z,21.80
2023-01-29T02:11:03.524Z,18.25
2023-01-29T02:13:06.419Z,10.93
2023-01-29T02:15:08.281Z,15.75
2023-01-29T02:17:13.106Z,14.32
2023-01-29T02:20:00.620Z,15.93
2023-01-29T02:22:28.357Z,15.98
2023-01-29T02:24:32.474Z,13.80
2023-01-29T02:27:10.331Z,16.30
2023-01-29T02:29:35.410Z,18.17
2023-01-29T02:31:48.551Z,12.50
2023-01-29T02:34:02.585Z,13.35
2023-01-29T02:36:26.842Z,14.25
2023-01-29T02:38:37.946Z,18.38
2023-01-29T02:40:50.180Z,30.58
2023-01-29T02:43:02.291Z,16.27
2023-01-29T02:45:15.498Z,17.70
2023-01-29T02:47:33.312Z,15.43
2023-01-29T02:49:47.974Z,28.38
2023-01-29T02:52:01.837Z,11.75
2023-01-29T02:54:15.240Z,14.60
2023-01-29T02:56:28.165Z,14.90
2023-01-29T02:58:43.769Z,17.33
2023-01-29T03:00:47.916Z,13.63
2023-01-29T03:03:24.694Z,13.35
2023-01-29T03:05:45.714Z,11.25
2023-01-29T03:07:56.035Z,16.05
2023-01-29T03:09:58.180Z,11.55
2023-01-29T03:12:20.000Z,13.15
2023-01-29T03:14:52.616Z,12.25
2023-01-29T03:16:54.455Z,12.75
2023-01-29T03:19:07.269Z,11.13
2023-01-29T03:21:31.650Z,13.27
2023-01-29T03:23:53.872Z,11.60
2023-01-29T03:26:17.695Z,12.35
2023-01-29T03:28:40.497Z,12.07
2023-01-29T03:31:08.989Z,13.27
2023-01-29T03:33:12.555Z,7.80
2023-01-29T03:35:21.115Z,11.18
2023-01-29T03:37:46.238Z,6.97
2023-01-29T03:39:47.989Z,12.20
2023-01-29T03:41:59.087Z,12.00
2023-01-29T03:44:09.850Z,11.25
2023-01-29T03:46:29.820Z,10.95
2023-01-29T03:48:50.010Z,9.15
2023-01-29T03:51:21.277Z,11.98
2023-01-29T03:53:30.027Z,11.63
2023-01-29T03:55:31.471Z,10.48
2023-01-29T03:57:56.000Z,12.00
2023-01-29T04:00:16.520Z,12.57
2023-01-29T04:02:36.444Z,11.27
2023-01-29T04:04:40.161Z,8.90
2023-01-29T04:06:45.894Z,8.35
2023-01-29T04:08:55.761Z,10.50
2023-01-29T04:11:00.228Z,9.48
2023-01-29T04:13:09.163Z,8.48
2023-01-29T04:15:15.483Z,9.15
2023-01-29T04:17:25.737Z,8.55
2023-01-29T04:19:27.795Z,10.13
2023-01-29T04:21:32.005Z,9.63
2023-01-29T04:23:33.706Z,10.77
2023-01-29T04:25:45.640Z,9.80
2023-01-29T04:28:13.767Z,15.93
2023-01-29T04:30:25.614Z,27.52
2023-01-29T04:32:32.695Z,29.90
2023-01-29T04:34:52.364Z,24.85
2023-01-29T04:37:04.716Z,19.17
2023-01-29T04:39:31.919Z,25.67
2023-01-29T04:41:40.596Z,15.10
2023-01-29T04:43:53.717Z,10.60
2023-01-29T04:46:11.235Z,10.18
2023-01-29T04:48:28.429Z,10.07
2023-01-29T04:50:41.854Z,10.15
2023-01-29T04:52:53.985Z,8.60
2023-01-29T04:54:58.285Z,9.77
2023-01-29T04:57:12.936Z,11.77
2023-01-29T04:59:22.796Z,11.82
2023-01-29T05:01:29.926Z,18.10
2023-01-29T05:03:33.903Z,10.18
2023-01-29T05:05:36.659Z,14.15
2023-01-29T05:07:39.463Z,10.77
2023-01-29T05:09:43.889Z,12.27
2023-01-29T05:11:47.729Z,43.80
2023-01-29T05:13:49.539Z,127.97
2023-01-29T05:16:13.465Z,26.35
2023-01-29T05:18:15.001Z,20.60
2023-01-29T05:20:17.077Z,12.90
2023-01-29T05:22:22.704Z,10.40
2023-01-29T05:24:26.771Z,10.25
2023-01-29T05:26:46.640Z,8.15
2023-01-29T05:28:48.150Z,8.35
2023-01-29T05:30:52.795Z,9.98
2023-01-29T05:32:54.500Z,7.70
2023-01-29T05:34:56.032Z,16.38
2023-01-29T05:36:57.621Z,11.18
2023-01-29T05:38:59.123Z,10.32
2023-01-29T05:41:00.714Z,11.27
2023-01-29T05:43:02.264Z,9.55
2023-01-29T05:45:04.515Z,34.35
2023-01-29T05:47:06.595Z,20.65
2023-01-29T05:49:08.125Z,16.48
2023-01-29T05:51:09.636Z,49.65
2023-01-29T05:53:11.254Z,14.23
2023-01-29T05:55:12.780Z,12.20
2023-01-29T05:57:15.073Z,14.48
2023-01-29T05:59:16.689Z,12.80
2023-01-29T06:01:23.915Z,16.13
2023-01-29T06:03:25.459Z,45.67
2023-01-29T06:05:26.992Z,28.70
2023-01-29T06:07:28.510Z,61.45
2023-01-29T06:09:30.013Z,300.55
2023-01-29T06:11:31.519Z,225.32
2023-01-29T06:13:33.025Z,51.03
2023-01-29T06:15:34.678Z,23.20
2023-01-29T06:17:36.280Z,23.35
2023-01-29T06:19:37.866Z,18.92
2023-01-29T06:21:39.400Z,18.55
2023-01-29T06:23:41.173Z,31.00
2023-01-29T06:25:42.687Z,23.77
2023-01-29T06:27:44.177Z,46.20
2023-01-29T06:29:45.749Z,17.88
2023-01-29T06:31:47.416Z,18.52
2023-01-29T06:33:49.039Z,17.90
2023-01-29T06:35:55.075Z,30.70
2023-01-29T06:37:56.983Z,44.72
2023-01-29T06:39:58.480Z,33.13
2023-01-29T06:42:00.120Z,87.40
2023-01-29T06:44:01.874Z,116.90
2023-01-29T06:46:03.436Z,175.55
2023-01-29T06:48:05.230Z,255.23
2023-01-29T06:50:06.876Z,161.18
2023-01-29T06:52:08.395Z,272.15
2023-01-29T06:54:10.854Z,179.20
2023-01-29T06:56:12.364Z,154.50
2023-01-29T06:58:13.889Z,113.55
2023-01-29T07:00:16.068Z,144.93
2023-01-29T07:02:18.116Z,92.18
2023-01-29T07:04:19.746Z,71.63
2023-01-29T07:06:21.410Z,106.57
2023-01-29T07:08:22.972Z,211.02
2023-01-29T07:10:24.470Z,207.38
2023-01-29T07:12:26.069Z,128.10
2023-01-29T07:14:27.549Z,101.75
2023-01-29T07:16:29.128Z,31.98
2023-01-29T07:18:31.117Z,33.30
2023-01-29T07:20:32.628Z,45.35
2023-01-29T07:22:34.122Z,54.30
2023-01-29T07:24:35.630Z,121.00
2023-01-29T07:26:37.185Z,79.60
2023-01-29T07:28:40.023Z,68.47
2023-01-29T07:30:41.564Z,168.32
2023-01-29T07:32:43.722Z,54.35
2023-01-29T07:34:45.315Z,69.32
2023-01-29T07:36:46.887Z,62.20
2023-01-29T07:38:51.835Z,57.72
2023-01-29T07:40:53.711Z,53.40
2023-01-29T07:43:03.209Z,144.52
2023-01-29T07:45:06.358Z,104.70
2023-01-29T07:47:07.911Z,62.65
2023-01-29T07:49:09.463Z,71.55
2023-01-29T07:51:11.021Z,122.30
2023-01-29T07:53:15.842Z,59.20
2023-01-29T07:55:17.726Z,52.78
2023-01-29T07:57:19.210Z,76.80
2023-01-29T07:59:20.809Z,129.30
2023-01-29T08:01:22.390Z,45.40
2023-01-29T08:03:23.984Z,57.92
2023-01-29T08:05:25.545Z,66.32
2023-01-29T08:07:27.121Z,46.97
2023-01-29T08:09:28.665Z,52.65
2023-01-29T08:11:30.201Z,70.05
2023-01-29T08:13:32.272Z,173.45
2023-01-29T08:15:34.915Z,145.30
2023-01-29T08:17:52.530Z,220.93
2023-01-29T08:19:58.621Z,248.27
2023-01-29T08:22:00.111Z,284.23
2023-01-29T08:26:08.490Z,205.68
2023-01-29T08:28:11.777Z,33.45
2023-01-29T08:30:13.726Z,43.78
2023-01-29T08:32:15.213Z,86.60
2023-01-29T08:34:16.731Z,36.10
2023-01-29T08:36:18.218Z,40.83
2023-01-29T08:38:19.688Z,25.55
2023-01-29T08:40:21.484Z,22.67
2023-01-29T08:42:23.039Z,33.05
2023-01-29T08:44:24.716Z,49.95
2023-01-29T08:46:26.336Z,51.28
2023-01-29T08:48:30.302Z,56.30
2023-01-29T08:50:32.992Z,65.00
2023-01-29T08:52:34.534Z,50.10
2023-01-29T08:54:36.094Z,52.78
2023-01-29T08:56:37.626Z,40.03
2023-01-29T08:58:39.190Z,58.10
2023-01-29T09:00:40.697Z,58.17
2023-01-29T09:02:42.445Z,89.40
2023-01-29T09:04:44.001Z,78.00
2023-01-29T09:06:45.523Z,42.55
2023-01-29T09:08:47.918Z,34.65
2023-01-29T09:10:49.455Z,34.10
2023-01-29T09:12:50.984Z,30.88
2023-01-29T09:14:52.466Z,42.05
2023-01-29T09:16:54.000Z,33.88
2023-01-29T09:18:55.499Z,25.67
2023-01-29T09:20:58.035Z,38.83
2023-01-29T09:23:04.773Z,46.88
2023-01-29T09:25:07.119Z,36.35
2023-01-29T09:27:10.065Z,29.95
2023-01-29T09:29:11.823Z,34.38
2023-01-29T09:31:13.457Z,15.35
2023-01-29T09:33:15.496Z,19.33
2023-01-29T09:35:17.252Z,27.52
2023-01-29T09:37:20.390Z,33.00
2023-01-29T09:39:22.657Z,26.83
2023-01-29T09:41:35.963Z,38.15
2023-01-29T09:43:51.307Z,33.33
2023-01-29T09:46:04.881Z,18.65
2023-01-29T09:48:12.626Z,24.30
2023-01-29T09:50:26.622Z,36.35
2023-01-29T09:52:38.712Z,29.05
2023-01-29T09:54:50.910Z,48.67
2023-01-29T09:56:57.133Z,56.97
2023-01-29T09:59:01.578Z,60.40
2023-01-29T10:01:16.649Z,63.88
2023-01-29T10:03:21.212Z,35.22
2023-01-29T10:05:34.930Z,18.77
2023-01-29T10:08:01.692Z,22.23
2023-01-29T10:10:21.326Z,28.65
2023-01-29T10:15:08.735Z,55.17
2023-01-29T10:17:28.831Z,74.07
2023-01-29T10:19:36.723Z,39.53
2023-01-29T10:21:50.540Z,34.03
2023-01-29T10:23:59.012Z,32.60
2023-01-29T10:26:01.007Z,59.83
2023-01-29T10:28:02.531Z,75.28
2023-01-29T10:30:09.639Z,128.48
2023-01-29T10:32:19.618Z,82.22
2023-01-29T10:34:30.774Z,45.92
2023-01-29T10:36:45.011Z,58.28
2023-01-29T10:38:47.837Z,89.22
2023-01-29T10:41:04.062Z,65.57
2023-01-29T10:43:31.549Z,48.03
2023-01-29T10:45:53.118Z,73.80
2023-01-29T10:48:09.168Z,59.35
2023-01-29T10:50:19.883Z,53.47
2023-01-29T10:52:39.469Z,128.95
2023-01-29T10:55:23.398Z,95.45
2023-01-29T10:57:28.001Z,69.15
2023-01-29T11:00:07.916Z,77.07
2023-01-29T11:02:16.576Z,82.72
2023-01-29T11:04:18.612Z,73.25
2023-01-29T11:06:30.719Z,83.55
2023-01-29T11:08:40.268Z,113.05
2023-01-29T11:11:06.640Z,63.67
2023-01-29T11:13:14.177Z,71.07
2023-01-29T11:15:34.889Z,26.80
2023-01-29T11:17:36.531Z,32.17
2023-01-29T11:19:43.157Z,60.47
2023-01-29T11:22:15.420Z,108.63
2023-01-29T11:24:17.643Z,141.48
2023-01-29T11:26:23.916Z,174.48
2023-01-29T11:28:37.033Z,270.20
2023-01-29T11:30:41.109Z,55.50
2023-01-29T11:32:43.482Z,57.75
2023-01-29T11:35:15.931Z,67.15
2023-01-29T11:37:17.850Z,112.95
2023-01-29T11:39:24.192Z,47.53
2023-01-29T11:41:26.612Z,68.68
2023-01-29T11:43:28.097Z,49.00
2023-01-29T11:45:32.462Z,37.13
2023-01-29T11:47:34.023Z,80.68
2023-01-29T11:49:36.199Z,63.28
2023-01-29T11:51:38.983Z,96.38
2023-01-29T11:53:43.753Z,61.88
2023-01-29T11:55:50.764Z,37.40
2023-01-29T11:57:52.560Z,117.90
2023-01-29T11:59:56.918Z,26.80
2023-01-29T12:02:12.561Z,31.45
2023-01-29T12:04:20.698Z,42.47
2023-01-29T12:06:25.204Z,161.90
2023-01-29T12:08:33.754Z,225.55
2023-01-29T12:10:38.276Z,33.28
2023-01-29T12:12:42.522Z,37.78
2023-01-29T12:14:44.272Z,57.03
2023-01-29T12:17:09.114Z,166.32
2023-01-29T12:19:14.143Z,207.90
2023-01-29T12:21:26.135Z,96.97
2023-01-29T12:23:36.709Z,142.10
2023-01-29T12:25:59.320Z,261.38
2023-01-29T12:28:12.990Z,274.23
2023-01-29T12:30:26.038Z,168.23
2023-01-29T12:32:37.181Z,65.93
2023-01-29T12:34:57.672Z,93.95
2023-01-29T12:37:23.832Z,22.73
2023-01-29T12:39:25.423Z,50.47
2023-01-29T12:41:39.170Z,22.05
2023-01-29T12:43:48.470Z,29.63
2023-01-29T12:45:54.964Z,59.85
2023-01-29T12:48:04.860Z,52.38
2023-01-29T12:50:21.958Z,25.52
2023-01-29T12:52:35.057Z,32.05
2023-01-29T12:54:57.342Z,44.13
2023-01-29T12:57:02.475Z,80.22
2023-01-29T12:59:29.956Z,68.20
2023-01-29T13:01:34.377Z,25.55
2023-01-29T13:03:53.446Z,28.13
2023-01-29T13:06:02.516Z,42.60
2023-01-29T13:08:12.075Z,27.92
2023-01-29T13:10:18.565Z,50.35
2023-01-29T13:12:22.697Z,48.95
2023-01-29T13:14:28.973Z,35.72
2023-01-29T13:16:37.374Z,38.33
2023-01-29T13:18:50.732Z,47.05
2023-01-29T13:20:52.932Z,19.77
2023-01-29T13:22:58.576Z,124.95
2023-01-29T13:25:05.179Z,20.42
2023-01-29T13:27:07.988Z,43.10
2023-01-29T13:29:28.238Z,39.45
2023-01-29T13:31:40.752Z,48.85
2023-01-29T13:33:44.107Z,57.58
2023-01-29T13:35:46.299Z,36.67
2023-01-29T13:37:53.662Z,46.20
2023-01-29T13:39:56.749Z,83.20
2023-01-29T13:42:00.206Z,95.53
2023-01-29T13:44:02.673Z,77.68
2023-01-29T13:46:13.946Z,107.47
2023-01-29T13:48:26.696Z,75.25
2023-01-29T13:50:38.820Z,84.85
2023-01-29T13:52:45.105Z,94.38
2023-01-29T13:54:54.362Z,94.82
2023-01-29T13:56:55.824Z,63.30
2023-01-29T13:58:58.214Z,86.32
2023-01-29T14:01:01.663Z,94.70
2023-01-29T14:03:11.686Z,114.32
2023-01-29T14:05:31.498Z,113.30
2023-01-29T14:08:14.317Z,113.53
2023-01-29T14:10:20.305Z,84.38
2023-01-29T14:12:21.826Z,74.32
2023-01-29T14:14:48.190Z,81.63
2023-01-29T14:16:50.117Z,73.47
2023-01-29T14:19:01.895Z,76.68
2023-01-29T14:21:05.007Z,67.43
2023-01-29T14:23:08.131Z,50.75
2023-01-29T14:25:18.177Z,57.25
2023-01-29T14:27:22.848Z,36.97
2023-01-29T14:29:34.703Z,76.78
2023-01-29T14:31:39.221Z,55.40
2023-01-29T14:33:43.460Z,63.22
2023-01-29T14:35:51.155Z,49.25
2023-01-29T14:37:59.436Z,53.72
2023-01-29T14:40:23.344Z,54.95
2023-01-29T14:42:29.742Z,55.92
2023-01-29T14:44:48.509Z,80.63
2023-01-29T14:46:50.157Z,63.20
2023-01-29T14:48:51.979Z,41.22
2023-01-29T14:50:59.251Z,60.42
2023-01-29T14:53:15.297Z,39.70
2023-01-29T14:55:30.780Z,23.17
2023-01-29T14:57:33.172Z,62.17
2023-01-29T14:59:46.707Z,48.53
2023-01-29T15:01:54.733Z,45.15
2023-01-29T15:04:16.015Z,28.08
2023-01-29T15:06:23.859Z,60.03
2023-01-29T15:08:43.831Z,32.65
2023-01-29T15:11:10.999Z,36.20
2023-01-29T15:13:32.621Z,75.80
2023-01-29T15:15:46.174Z,53.00
2023-01-29T15:18:06.566Z,59.35
2023-01-29T15:20:31.301Z,35.80
2023-01-29T15:22:42.961Z,40.63
2023-01-29T15:24:46.323Z,44.65
2023-01-29T15:26:48.068Z,42.92
2023-01-29T15:29:04.905Z,69.28
2023-01-29T15:31:13.315Z,41.83
2023-01-29T15:33:15.083Z,36.10
2023-01-29T15:35:37.630Z,41.97
2023-01-29T15:37:40.011Z,39.58
2023-01-29T15:39:45.084Z,49.38
2023-01-29T15:41:47.167Z,32.45
2023-01-29T15:43:57.810Z,40.90
2023-01-29T15:46:02.937Z,63.60
2023-01-29T15:48:18.122Z,75.63
2023-01-29T15:50:19.686Z,95.57
2023-01-29T15:52:28.828Z,107.25
2023-01-29T15:54:32.361Z,115.80
2023-01-29T15:56:40.362Z,93.85
2023-01-29T15:58:42.575Z,81.70
2023-01-29T16:00:53.671Z,189.73
2023-01-29T16:02:57.195Z,57.08
2023-01-29T16:04:59.377Z,71.35
2023-01-29T16:07:02.077Z,121.68
2023-01-29T16:09:05.056Z,93.40
2023-01-29T16:11:08.629Z,134.82
2023-01-29T16:13:24.629Z,269.52
2023-01-29T16:15:35.367Z,676.58
2023-01-29T16:17:40.954Z,124.50
2023-01-29T16:19:42.508Z,168.15
2023-01-29T16:21:45.973Z,396.98
2023-01-29T16:23:53.658Z,130.30
2023-01-29T16:26:03.362Z,58.55
2023-01-29T16:28:07.382Z,137.98
2023-01-29T16:30:13.860Z,200.98
2023-01-29T16:32:16.431Z,195.00
2023-01-29T16:34:27.802Z,163.20
2023-01-29T16:36:29.439Z,150.63
2023-01-29T16:38:33.650Z,128.93
2023-01-29T16:40:37.937Z,110.97
2023-01-29T16:42:41.645Z,97.43
2023-01-29T16:44:47.228Z,212.18
2023-01-29T16:46:51.991Z,46.85
2023-01-29T16:48:54.342Z,94.40
2023-01-29T16:51:12.859Z,197.40
2023-01-29T16:53:23.285Z,148.25
2023-01-29T16:55:25.696Z,138.45
2023-01-29T16:57:33.847Z,128.73
2023-01-29T16:59:38.093Z,129.93
2023-01-29T17:01:39.664Z,173.23
2023-01-29T17:03:42.264Z,188.75
2023-01-29T17:05:45.012Z,146.45
2023-01-29T17:07:46.983Z,198.43
2023-01-29T17:09:54.603Z,108.20
2023-01-29T17:11:59.407Z,124.22
2023-01-29T17:14:01.356Z,278.05
2023-01-29T17:16:16.570Z,127.25
2023-01-29T17:18:23.204Z,128.40
2023-01-29T17:20:24.790Z,73.47
2023-01-29T17:22:26.307Z,53.17
2023-01-29T17:24:27.813Z,94.60
2023-01-29T17:26:31.042Z,52.05
2023-01-29T17:28:33.405Z,62.25
2023-01-29T17:30:37.358Z,76.53
2023-01-29T17:32:44.222Z,64.63
2023-01-29T17:34:46.978Z,39.92
2023-01-29T17:36:48.724Z,44.38
2023-01-29T17:38:50.220Z,61.28
2023-01-29T17:40:58.390Z,94.88
2023-01-29T17:43:00.132Z,86.55
2023-01-29T17:45:01.761Z,118.18
2023-01-29T17:47:05.448Z,114.70
2023-01-29T17:49:27.920Z,81.40
2023-01-29T17:51:29.451Z,84.45
2023-01-29T17:53:45.457Z,86.15
2023-01-29T17:55:48.467Z,104.32
2023-01-29T17:57:50.040Z,97.25
2023-01-29T17:59:51.527Z,51.33
2023-01-29T18:01:53.418Z,51.53
2023-01-29T18:03:55.203Z,65.75
2023-01-29T18:05:56.877Z,73.25
2023-01-29T18:07:58.496Z,63.00
2023-01-29T18:10:00.132Z,83.30
2023-01-29T18:12:01.729Z,94.18
2023-01-29T18:14:07.532Z,87.38
2023-01-29T18:16:18.356Z,102.55
2023-01-29T18:18:21.958Z,100.32
2023-01-29T18:20:25.722Z,91.25
2023-01-29T18:22:27.389Z,77.50
2023-01-29T18:24:30.002Z,90.38
2023-01-29T18:26:31.568Z,59.05
2023-01-29T18:28:33.519Z,75.55
2023-01-29T18:30:35.294Z,105.07
2023-01-29T18:32:37.218Z,91.75
2023-01-29T18:34:38.923Z,117.55
2023-01-29T18:36:40.517Z,145.23
2023-01-29T18:38:41.995Z,136.35
2023-01-29T18:40:43.769Z,91.38
2023-01-29T18:42:46.940Z,109.50
2023-01-29T18:44:48.968Z,74.70
2023-01-29T18:46:50.688Z,115.25
2023-01-29T18:48:52.281Z,58.35
2023-01-29T18:50:53.897Z,59.10
2023-01-29T18:52:55.681Z,56.67
2023-01-29T18:54:57.414Z,44.03
2023-01-29T18:57:13.388Z,55.33
2023-01-29T18:59:16.395Z,55.85
2023-01-29T19:01:18.253Z,58.40
2023-01-29T19:03:20.180Z,57.72
2023-01-29T19:05:23.913Z,63.20
2023-01-29T19:07:25.698Z,61.97
2023-01-29T19:09:27.539Z,43.28
2023-01-29T19:11:29.095Z,45.13
2023-01-29T19:13:31.981Z,35.10
2023-01-29T19:15:34.202Z,38.15
2023-01-29T19:17:35.928Z,35.40
2023-01-29T19:19:37.641Z,35.00
2023-01-29T19:21:39.406Z,36.15
2023-01-29T19:23:42.540Z,34.70
2023-01-29T19:25:44.678Z,32.35
2023-01-29T19:27:46.270Z,29.42
2023-01-29T19:29:47.846Z,34.88
2023-01-29T19:31:49.546Z,39.00
2023-01-29T19:33:51.079Z,43.13
2023-01-29T19:35:52.683Z,43.40
2023-01-29T19:37:54.861Z,65.32
2023-01-29T19:39:56.766Z,42.28
2023-01-29T19:41:58.359Z,35.53
2023-01-29T19:43:59.869Z,35.13
2023-01-29T19:46:02.278Z,48.75
2023-01-29T19:48:04.060Z,36.30
2023-01-29T19:50:07.424Z,31.95
2023-01-29T19:52:14.825Z,37.20
2023-01-29T19:54:16.405Z,55.47
2023-01-29T19:56:19.051Z,65.82
2023-01-29T19:58:20.736Z,100.38
2023-01-29T20:00:22.713Z,64.35
2023-01-29T20:02:25.262Z,93.13
2023-01-29T20:04:27.018Z,80.97
2023-01-29T20:06:32.659Z,81.57
2023-01-29T20:08:35.281Z,74.90
2023-01-29T20:10:37.060Z,61.00
2023-01-29T20:12:38.697Z,57.33
2023-01-29T20:14:45.796Z,46.92
2023-01-29T20:16:47.313Z,45.58
2023-01-29T20:18:48.979Z,39.28
2023-01-29T20:20:53.458Z,36.15
2023-01-29T20:22:55.407Z,53.75
2023-01-29T20:24:57.510Z,48.40
2023-01-29T20:26:59.911Z,43.78
2023-01-29T20:29:01.587Z,43.28
2023-01-29T20:31:03.791Z,45.88
2023-01-29T20:33:06.311Z,47.42
2023-01-29T20:35:08.655Z,108.68
2023-01-29T20:37:10.311Z,253.30
2023-01-29T20:39:12.059Z,85.05
2023-01-29T20:41:17.797Z,55.38
2023-01-29T20:43:19.334Z,55.20
2023-01-29T20:45:22.021Z,55.55
2023-01-29T20:47:23.526Z,56.83
2023-01-29T20:49:26.283Z,45.03
2023-01-29T20:51:28.154Z,58.80
2023-01-29T20:53:29.734Z,58.78
2023-01-29T20:55:31.646Z,51.17
2023-01-29T20:57:33.658Z,80.93
2023-01-29T20:59:35.365Z,51.90
2023-01-29T21:01:37.243Z,47.05
2023-01-29T21:03:39.823Z,36.28
2023-01-29T21:05:42.066Z,60.42
2023-01-29T21:07:43.598Z,50.65
2023-01-29T21:09:45.170Z,46.45
2023-01-29T21:11:46.785Z,66.70
2023-01-29T21:13:48.428Z,70.05
2023-01-29T21:15:50.508Z,44.53
2023-01-29T21:17:52.437Z,71.22
2023-01-29T21:19:54.029Z,204.75
2023-01-29T21:21:58.022Z,106.57
2023-01-29T21:23:59.560Z,51.35
2023-01-29T21:26:05.678Z,44.88
2023-01-29T21:28:07.360Z,50.78
2023-01-29T21:30:09.538Z,40.33
2023-01-29T21:32:11.687Z,42.45
2023-01-29T21:34:13.209Z,50.28
2023-01-29T21:36:14.767Z,64.15
2023-01-29T21:38:16.339Z,46.47
2023-01-29T21:40:18.405Z,38.92
2023-01-29T21:42:38.714Z,73.72
2023-01-29T21:44:40.205Z,99.55
2023-01-29T21:46:41.724Z,62.60
2023-01-29T21:48:43.345Z,64.20
2023-01-29T21:50:45.710Z,52.30
2023-01-29T21:52:47.288Z,66.57
2023-01-29T21:54:49.020Z,53.88
2023-01-29T21:56:50.626Z,70.30
2023-01-29T21:58:52.210Z,176.60
2023-01-29T22:00:53.759Z,158.65
2023-01-29T22:02:55.468Z,69.40
2023-01-29T22:05:16.359Z,68.65
2023-01-29T22:07:19.551Z,70.18
2023-01-29T22:09:21.661Z,74.00
2023-01-29T22:11:23.225Z,59.72
2023-01-29T22:13:24.862Z,53.78
2023-01-29T22:15:26.428Z,56.35
2023-01-29T22:17:28.101Z,54.75
2023-01-29T22:19:29.577Z,58.25
2023-01-29T22:21:31.071Z,52.05
2023-01-29T22:23:32.885Z,58.50
2023-01-29T22:25:34.484Z,51.67
2023-01-29T22:27:36.281Z,45.25
2023-01-29T22:29:38.072Z,39.42
2023-01-29T22:31:40.419Z,45.42
2023-01-29T22:33:43.227Z,49.00
2023-01-29T22:35:44.740Z,64.53
2023-01-29T22:37:46.579Z,78.90
2023-01-29T22:39:48.129Z,55.10
2023-01-29T22:41:49.642Z,63.22
2023-01-29T22:43:51.330Z,79.18
2023-01-29T22:45:52.878Z,59.88
2023-01-29T22:47:54.380Z,95.65
2023-01-29T22:49:55.951Z,81.00
2023-01-29T22:52:12.454Z,105.78
2023-01-29T22:54:15.606Z,64.60
2023-01-29T22:56:18.019Z,47.90
2023-01-29T22:58:19.540Z,77.25
2023-01-29T23:00:21.335Z,49.20
2023-01-29T23:02:22.841Z,48.90
2023-01-29T23:04:24.317Z,48.08
2023-01-29T23:06:26.029Z,54.63
2023-01-29T23:08:27.668Z,43.50
2023-01-29T23:10:29.185Z,45.90
2023-01-29T23:12:30.737Z,48.70
2023-01-29T23:14:32.257Z,38.80
2023-01-29T23:16:33.900Z,39.00
2023-01-29T23:18:35.638Z,45.38
2023-01-29T23:20:37.160Z,75.38
2023-01-29T23:22:38.672Z,44.65
2023-01-29T23:24:40.200Z,51.15
2023-01-29T23:27:00.665Z,47.15
2023-01-29T23:29:03.814Z,59.63
2023-01-29T23:31:05.484Z,59.45
2023-01-29T23:33:07.106Z,51.97
2023-01-29T23:35:08.975Z,50.85
2023-01-29T23:37:10.561Z,91.88
2023-01-29T23:39:12.123Z,60.42
2023-01-29T23:41:13.996Z,56.25
2023-01-29T23:43:15.493Z,64.80
2023-01-29T23:45:16.968Z,52.15
2023-01-29T23:47:18.463Z,50.40
2023-01-29T23:49:20.109Z,60.20
2023-01-29T23:51:21.620Z,66.70
2023-01-29T23:53:23.463Z,54.38
2023-01-29T23:55:24.977Z,49.47
2023-01-29T23:57:26.511Z,64.45
2023-01-29T23:59:28.955Z,62.17
